• Join FlightAware (Why Join?)
  • Login
  • US Flag 
10:26PM EDT


 

Airport Tracker/Info


-or-


 

Live Flight TrackerFlight Track Log ✈ AVN31 ✈ 19-Sep-2013 ✈ YMML / MEL - NVVV / VLI

Flight Track Log - Related Links

Times and Time Zones

All times are in EDT time to prevent confusion due to time zone crossing. See the AVN31 flight status page for this flight to view local times or setup timezone preferences in your user account.

Time Position Orientation Groundspeed Altitude Reporting Facility
EDT Latitude Longitude Course Direction KTS MPH feet Rate Location/Type
07:51AM -37.6600 144.8040 274° West 172 198 1,700  Level FlightAware
07:51AM -37.6587 144.7889 278° West 163 188 2,200 2,400 Climbing Aus ATC (RADAR)
07:51AM -37.6580 144.7830 277° West 173 199 2,500 2,100 Climbing FlightAware
07:52AM -37.6570 144.7610 273° West 184 212 3,200 2,100 Climbing FlightAware
07:52AM -37.6560 144.7390 273° West 196 226 3,900 1,920 Climbing FlightAware
07:52AM -37.6530 144.7160 279° West 214 246 4,500 1,560 Climbing FlightAware
07:52AM -37.6500 144.7050 289° West 227 261 4,700 1,800 Climbing FlightAware
07:53AM -37.6420 144.6940 313° West 232 267 5,100 3,000 Climbing FlightAware
07:53AM -37.6330 144.6870 328° Northwest 238 274 5,700 3,000 Climbing FlightAware
07:53AM -37.6110 144.6770 340° North 245 282 6,600 2,400 Climbing FlightAware
07:53AM -37.5890 144.6680 342° North 257 296 7,300 2,280 Climbing FlightAware
07:54AM -37.5530 144.6550 344° North 279 321 8,500 2,400 Climbing FlightAware
07:54AM -37.5480 144.6550 360° North 284 327 8,700 2,640 Climbing FlightAware
07:54AM -37.5220 144.6640 15° North 300 345 9,600 2,760 Climbing FlightAware
07:55AM -37.5110 144.6760 41° Northeast 303 349 10,100 1,860 Climbing FlightAware
07:55AM -37.4760 144.7240 47° Northeast 334 384 11,000 1,320 Climbing FlightAware
07:56AM -37.4300 144.7830 46° Northeast 376 433 11,800 2,220 Climbing FlightAware
07:56AM -37.3830 144.8460 47° Northeast 367 422 14,000 3,240 Climbing FlightAware
07:57AM -37.3440 144.8970 46° Northeast 354 407 15,900 2,640 Climbing FlightAware
07:58AM -37.3080 144.9440 46° Northeast 360 414 16,900 1,920 Climbing FlightAware
07:58AM -37.2680 144.9970 47° Northeast 370 426 18,000 1,920 Climbing FlightAware
07:59AM -37.2180 145.0620 46° Northeast 379 436 19,300 1,920 Climbing FlightAware
07:59AM -37.1790 145.1140 47° Northeast 383 441 20,400 1,920 Climbing FlightAware
08:00AM -37.1330 145.1730 46° Northeast 384 442 21,600 1,920 Climbing FlightAware
08:01AM -37.0900 145.2290 46° Northeast 388 447 22,700 1,740 Climbing FlightAware
08:01AM -37.0350 145.2890 41° Northeast 390 449 23,800 1,500 Climbing FlightAware
08:02AM -36.9870 145.3400 40° Northeast 395 455 24,600 1,260 Climbing FlightAware
08:02AM -36.9370 145.3910 39° Northeast 404 465 25,300 840 Climbing FlightAware
08:03AM -36.8850 145.4450 40° Northeast 425 489 25,600 600 Climbing FlightAware
08:04AM -36.8330 145.4970 39° Northeast 441 507 26,000 840 Climbing FlightAware
08:04AM -36.7740 145.5580 40° Northeast 448 516 26,600 1,080 Climbing FlightAware
08:05AM -36.7180 145.6160 40° Northeast 453 521 27,300 780 Climbing FlightAware
08:05AM -36.7143 145.6184 40° Northeast 451 519 27,100 1,200 Descending Aus ATC (RADAR)
08:05AM -36.6610 145.6740 40° Northeast 456 525 28,000 1,200 Climbing FlightAware
08:05AM -36.6576 145.6766 40° Northeast 454 522 27,800 1,320 Descending Aus ATC (RADAR)
08:06AM -36.6040 145.7320 40° Northeast 454 522 28,800 1,500 Climbing FlightAware
08:06AM -36.5929 145.7428 40° Northeast 453 521 28,800 840 Level Aus ATC (RADAR)
08:06AM -36.5470 145.7900 40° Northeast 461 531 29,300 600 Climbing FlightAware
08:06AM -36.5436 145.7929 40° Northeast 459 528 29,100 840 Descending Aus ATC (RADAR)
08:07AM -36.4940 145.8440 39° Northeast 466 536 29,800 1,080 Climbing FlightAware
08:08AM -36.4300 145.9090 39° Northeast 469 540 30,400 960 Climbing FlightAware
08:08AM -36.3730 145.9670 39° Northeast 471 542 31,000 1,080 Climbing FlightAware
08:09AM -36.3120 146.0290 39° Northeast 469 540 31,700 1,200 Climbing FlightAware
08:09AM -36.2540 146.0870 39° Northeast 467 537 32,400 1,020 Climbing FlightAware
08:10AM -36.1950 146.1460 39° Northeast 469 540 32,900 480 Climbing FlightAware
08:11AM -36.1350 146.2060 39° Northeast 479 551 33,000  Climbing FlightAware
08:11AM -36.1071 146.2352 39° Northeast 476 548 32,900 -120 Descending Aus ATC (RADAR)
08:11AM -36.0469 146.2963 39° Northeast 480 552 32,900 120 Level Aus ATC (RADAR)
08:11AM -36.0440 146.2980 39° Northeast 481 554 33,000 120 Climbing FlightAware
08:12AM -35.9720 146.3690 39° Northeast 481 554 33,000  Level FlightAware
08:13AM -35.9210 146.4210 40° Northeast 481 554 33,000 -120 Level FlightAware
08:13AM -35.8655 146.4769 40° Northeast 480 552 32,900  Descending Aus ATC (RADAR)
08:13AM -35.8600 146.4820 40° Northeast 481 554 33,000 120 Climbing FlightAware
08:14AM -35.7910 146.5490 38° Northeast 481 554 33,000  Level FlightAware
08:14AM -35.7410 146.5990 39° Northeast 481 554 33,000 -120 Level FlightAware
08:15AM -35.6838 146.6566 39° Northeast 479 551 32,900  Descending Aus ATC (RADAR)
08:15AM -35.6780 146.6610 39° Northeast 480 552 33,000 120 Climbing FlightAware
08:16AM -35.6150 146.7240 39° Northeast 480 552 33,000  Level FlightAware
08:16AM -35.5560 146.7820 39° Northeast 479 551 33,000  Level FlightAware
08:17AM -35.4990 146.8380 39° Northeast 479 551 33,000 -120 Level FlightAware
08:17AM -35.4423 146.8949 39° Northeast 476 548 32,900  Descending Aus ATC (RADAR)
08:17AM -35.4330 146.9020 39° Northeast 480 552 33,000 120 Climbing FlightAware
08:18AM -35.3750 146.9590 39° Northeast 480 552 33,000  Level FlightAware
08:19AM -35.2950 147.0370 39° Northeast 481 554 33,000  Level FlightAware
08:19AM -35.2330 147.0980 39° Northeast 480 552 33,000  Level FlightAware
08:20AM -35.1800 147.1490 38° Northeast 480 552 33,000  Level FlightAware
08:20AM -35.1240 147.2040 39° Northeast 481 554 33,000  Level FlightAware
08:21AM -35.0610 147.2650 38° Northeast 481 554 33,000  Level FlightAware
08:22AM -34.9990 147.3250 38° Northeast 480 552 33,000  Level FlightAware
08:22AM -34.9380 147.3830 38° Northeast 474 545 33,000 -120 Level FlightAware
08:23AM -34.8772 147.4431 38° Northeast 478 550 32,900  Descending Aus ATC (RADAR)
08:23AM -34.8760 147.4430 38° Northeast 474 545 33,000  Climbing FlightAware
08:23AM -34.8162 147.5016 38° Northeast 478 550 32,900  Descending Aus ATC (RADAR)
08:23AM -34.8160 147.5010 38° Northeast 474 545 33,000  Climbing FlightAware
08:24AM -34.7553 147.5601 38° Northeast 478 550 32,900  Descending Aus ATC (RADAR)
08:24AM -34.7540 147.5600 38° Northeast 474 545 33,000  Climbing FlightAware
08:24AM -34.6941 147.6185 38° Northeast 478 550 32,900  Descending Aus ATC (RADAR)
08:24AM -34.6850 147.6260 38° Northeast 475 547 33,000 120 Climbing FlightAware
08:25AM -34.6230 147.6860 39° Northeast 475 547 33,000  Level FlightAware
08:26AM -34.5630 147.7430 38° Northeast 477 549 33,000  Level FlightAware
08:26AM -34.5090 147.7940 38° Northeast 476 548 33,000 -120 Level FlightAware
08:27AM -34.4489 147.8521 38° Northeast 481 554 32,900  Descending Aus ATC (RADAR)
08:27AM -34.4490 147.8520 38° Northeast 476 548 33,000 120 Climbing FlightAware
08:27AM -34.3860 147.9110 38° Northeast 476 548 33,000 -180 Level FlightAware
08:27AM -34.3697 147.9270 38° Northeast 481 554 32,900 -240 Descending Aus ATC (RADAR)
08:28AM -34.3264 147.9682 38° Northeast 477 549 32,900 180 Level Aus ATC (RADAR)
08:28AM -34.3240 147.9700 38° Northeast 475 547 33,000  Climbing FlightAware
08:28AM -34.2648 148.0264 38° Northeast 479 551 32,900  Descending Aus ATC (RADAR)
08:28AM -34.2620 148.0290 38° Northeast 475 547 33,000  Climbing FlightAware
08:29AM -34.2034 148.0845 38° Northeast 480 552 32,900  Descending Aus ATC (RADAR)
08:29AM -34.1990 148.0880 38° Northeast 476 548 33,000  Climbing FlightAware
08:30AM -34.1417 148.1421 38° Northeast 479 551 32,900  Descending Aus ATC (RADAR)
08:30AM -34.1390 148.1440 38° Northeast 476 548 33,000  Climbing FlightAware
08:30AM -34.0800 148.2000 38° Northeast 481 554 32,900  Descending Aus ATC (RADAR)
08:30AM -34.0760 148.2030 38° Northeast 485 558 33,000 120 Climbing FlightAware
08:31AM -34.0150 148.2610 38° Northeast 490 564 33,000 -180 Level FlightAware
08:31AM -34.0085 148.2670 38° Northeast 488 562 32,900 -240 Descending Aus ATC (RADAR)
08:31AM -33.9546 148.3168 38° Northeast 489 563 32,900 120 Level Aus ATC (RADAR)
08:31AM -33.9500 148.3210 38° Northeast 489 563 33,000  Climbing FlightAware
08:32AM -33.8914 148.3759 38° Northeast 491 565 32,900  Descending Aus ATC (RADAR)
08:32AM -33.8880 148.3790 38° Northeast 490 564 33,000 120 Climbing FlightAware
08:33AM -33.8230 148.4390 37° Northeast 491 565 33,000  Level FlightAware
08:33AM -33.7610 148.4970 38° Northeast 491 565 33,000  Level FlightAware
08:34AM -33.6960 148.5580 38° Northeast 491 565 33,000  Level FlightAware
08:34AM -33.6340 148.6150 37° Northeast 492 566 33,000  Level FlightAware
08:35AM -33.5680 148.6770 38° Northeast 492 566 33,000  Level FlightAware
08:35AM -33.5060 148.7340 37° Northeast 493 567 33,000  Level FlightAware
08:36AM -33.4410 148.7950 38° Northeast 493 567 33,000 -120 Level FlightAware
08:37AM -33.3537 148.8742 38° Northeast 498 573 32,900  Descending Aus ATC (RADAR)
08:37AM -33.3470 148.8800 38° Northeast 494 568 33,000 120 Climbing FlightAware
08:38AM -33.2830 148.9390 38° Northeast 495 570 33,000  Level FlightAware
08:38AM -33.2180 148.9980 38° Northeast 502 578 33,000 -180 Level FlightAware
08:38AM -33.2160 149.0004 38° Northeast 496 571 32,900 -240 Descending Aus ATC (RADAR)
08:39AM -33.1612 149.0519 38° Northeast 497 572 32,900 120 Level Aus ATC (RADAR)
08:39AM -33.1530 149.0610 38° Northeast 507 583 33,000 120 Climbing FlightAware
08:39AM -33.0900 149.1270 41° Northeast 502 578 33,000  Level FlightAware
08:40AM -33.0360 149.1840 41° Northeast 502 578 33,000 -180 Level FlightAware
08:40AM -33.0290 149.1909 41° Northeast 504 580 32,900 -240 Descending Aus ATC (RADAR)
08:40AM -32.9753 149.2471 41° Northeast 509 586 32,900 120 Level Aus ATC (RADAR)
08:40AM -32.9680 149.2540 41° Northeast 500 575 33,000  Climbing FlightAware
08:41AM -32.9059 149.3191 41° Northeast 498 573 32,900  Descending Aus ATC (RADAR)
08:41AM -32.9060 149.3190 41° Northeast 499 574 33,000 180 Climbing FlightAware
08:42AM -32.8540 149.3730 41° Northeast 498 573 33,000 -120 Level FlightAware
08:42AM -32.7909 149.4383 41° Northeast 505 581 32,900  Descending Aus ATC (RADAR)
08:42AM -32.7950 149.4340 41° Northeast 498 573 33,000 120 Climbing FlightAware
08:43AM -32.7190 149.5120 41° Northeast 498 573 33,000  Level FlightAware
08:43AM -32.6620 149.5710 41° Northeast 499 574 33,000  Level FlightAware
08:44AM -32.6040 149.6300 41° Northeast 500 575 33,000  Level FlightAware
08:44AM -32.5440 149.6920 41° Northeast 498 573 33,000  Level FlightAware
08:45AM -32.4720 149.7660 41° Northeast 499 574 33,000  Level FlightAware
08:46AM -32.4110 149.8280 41° Northeast 499 574 33,000  Level FlightAware
08:46AM -32.3630 149.8760 40° Northeast 498 573 33,000  Level FlightAware
08:47AM -32.2940 149.9460 41° Northeast 505 581 33,000  Level FlightAware
08:47AM -32.2290 150.0120 41° Northeast 507 583 33,000  Level FlightAware
08:48AM -32.1720 150.0700 41° Northeast 509 586 33,000  Level FlightAware
08:48AM -32.1545 150.0885 41° Northeast 510 587 33,000  Level Aus ATC (RADAR)
08:49AM -32.0970 150.1470 41° Northeast 509 586 33,000 -180 Level FlightAware
08:49AM -32.0931 150.1501 41° Northeast 501 577 32,900  Descending Aus ATC (RADAR)
08:49AM -32.0350 150.2090 41° Northeast 511 588 33,000  Climbing FlightAware
08:49AM -32.0304 150.2138 41° Northeast 502 578 32,900 -180 Descending Aus ATC (RADAR)
08:50AM -31.9676 150.2767 41° Northeast 502 578 32,900 120 Level Aus ATC (RADAR)
08:50AM -31.9740 150.2710 41° Northeast 510 587 33,000 180 Climbing FlightAware
08:50AM -31.9210 150.3240 41° Northeast 509 586 33,000  Level FlightAware
08:50AM -31.9049 150.3396 41° Northeast 501 577 33,000  Level Aus ATC (RADAR)
08:51AM -31.8336 150.4115 41° Northeast 500 575 33,000  Level Aus ATC (RADAR)
08:51AM -31.8370 150.4080 41° Northeast 508 585 33,000  Level FlightAware
08:52AM -31.7801 150.4652 41° Northeast 497 572 33,000  Level Aus ATC (RADAR)
08:52AM -31.7830 150.4620 41° Northeast 507 583 33,000  Level FlightAware
08:52AM -31.7180 150.5270 41° Northeast 495 570 33,000  Level Aus ATC (RADAR)
08:52AM -31.7200 150.5250 41° Northeast 504 580 33,000  Level FlightAware
08:53AM -31.6510 150.5950 41° Northeast 496 571 33,000  Level FlightAware
08:53AM -31.5970 150.6480 40° Northeast 494 568 33,000  Level FlightAware
08:54AM -31.5350 150.7090 40° Northeast 491 565 33,000  Level FlightAware
08:55AM -31.4670 150.7770 40° Northeast 489 563 33,000  Level FlightAware
08:55AM -31.4030 150.8410 40° Northeast 490 564 33,000  Level FlightAware
08:56AM -31.3520 150.8900 40° Northeast 500 575 33,000  Level FlightAware
08:56AM -31.3396 150.9021 40° Northeast 489 563 33,000 540 Level Aus ATC (RADAR)
08:56AM -31.2770 150.9650 40° Northeast 496 571 33,400 600 Climbing FlightAware
08:56AM -31.2687 150.9721 40° Northeast 492 566 33,400 900 Level Aus ATC (RADAR)
08:57AM -31.2155 151.0248 40° Northeast 493 567 33,900 420 Climbing Aus ATC (RADAR)
08:57AM -31.1880 151.0540 40° Northeast 494 568 33,800 720 Descending FlightAware
08:58AM -31.0818 151.1562 40° Northeast 497 572 34,800 660 Climbing Aus ATC (RADAR)
08:58AM -31.0970 151.1440 40° Northeast 494 568 34,400 300 Descending FlightAware
08:59AM -31.0197 151.2166 40° Northeast 492 566 35,000 900 Climbing Aus ATC (RADAR)
08:59AM -31.0130 151.2240 40° Northeast 503 579 35,000  Level FlightAware
08:59AM -30.9520 151.2840 40° Northeast 506 582 35,000  Level FlightAware
09:00AM -30.8840 151.3500 40° Northeast 506 582 35,000  Level FlightAware
09:01AM -30.8170 151.4160 40° Northeast 506 582 35,000  Level FlightAware
09:01AM -30.7560 151.4750 40° Northeast 506 582 35,000  Level FlightAware
09:02AM -30.7010 151.5290 40° Northeast 506 582 35,000  Level FlightAware
09:03AM -30.6460 151.5820 40° Northeast 506 582 35,000  Level FlightAware
09:03AM -30.5910 151.6360 40° Northeast 506 582 35,000  Level FlightAware
09:04AM -30.4908 151.7303 40° Northeast 494 568  Descending Aus ATC (RADAR)
09:04AM -30.4880 151.7350 40° Northeast 35,000 42,840 Climbing FlightAware
09:04AM -30.4150 151.8040 39° Northeast 505 581 35,000  Level FlightAware
09:05AM -30.3190 151.8960 40° Northeast 505 581 35,000  Level FlightAware
09:06AM -30.2630 151.9490 39° Northeast 505 581 35,000  Level FlightAware
09:07AM -30.2070 152.0010 39° Northeast 505 581 35,000  Level FlightAware
09:07AM -30.1520 152.0530 39° Northeast 505 581 35,000  Level FlightAware
09:08AM -30.0960 152.1050 39° Northeast 505 581 35,000 -180 Level FlightAware
09:08AM -30.0336 152.1694 39° Northeast 492 566 34,900  Descending Aus ATC (RADAR)
09:08AM -29.9830 152.2190 41° Northeast 507 583 35,000 60 Climbing FlightAware
09:09AM -29.9140 152.2850 41° Northeast 508 585 35,000 -180 Level FlightAware
09:09AM -29.9068 152.2913 41° Northeast 496 571 34,900  Descending Aus ATC (RADAR)
09:10AM -29.8510 152.3440 39° Northeast 511 588 35,000 60 Climbing FlightAware
09:10AM -29.7860 152.4050 39° Northeast 515 593 35,000  Level FlightAware
09:11AM -29.7240 152.4640 40° Northeast 517 595 35,000  Level FlightAware
09:12AM -29.6440 152.5390 39° Northeast 512 589 35,000  Level FlightAware
09:12AM -29.5700 152.6090 39° Northeast 508 585 35,000  Level FlightAware
09:13AM -29.5030 152.6720 39° Northeast 512 589 35,000 -120 Level FlightAware
09:13AM -29.4303 152.7393 39° Northeast 513 590 34,900  Descending Aus ATC (RADAR)
09:13AM -29.4330 152.7380 39° Northeast 511 588 35,000 120 Climbing FlightAware
09:14AM -29.3640 152.8020 39° Northeast 511 588 35,000  Level FlightAware
09:15AM -29.2990 152.8630 39° Northeast 512 589 35,000  Level FlightAware
09:15AM -29.2350 152.9220 39° Northeast 510 587 35,000  Level FlightAware
09:16AM -29.1710 152.9820 39° Northeast 509 586 35,000  Level FlightAware
09:16AM -29.1110 153.0390 40° Northeast 510 587 35,000  Level FlightAware
09:17AM -29.0430 153.1010 39° Northeast 511 588 35,000  Level FlightAware
09:17AM -28.9830 153.1580 40° Northeast 509 586 35,000  Level FlightAware
09:18AM -28.9380 153.1990 39° Northeast 508 585 35,000 -120 Level FlightAware
09:19AM -28.8459 153.2850 39° Northeast 511 588 34,900  Descending Aus ATC (RADAR)
09:19AM -28.8240 153.3050 39° Northeast 511 588 35,000 120 Climbing FlightAware
09:20AM -28.7590 153.3640 39° Northeast 510 587 35,000  Level FlightAware
09:20AM -28.6960 153.4220 39° Northeast 511 588 35,000  Level FlightAware
09:21AM -28.6420 153.4720 39° Northeast 513 590 35,000  Level FlightAware
09:21AM -28.5690 153.5390 39° Northeast 514 592 35,000  Level FlightAware
09:22AM -28.5010 153.6010 39° Northeast 514 592 35,000 -180 Level FlightAware
09:22AM -28.4862 153.6154 39° Northeast 516 594 34,900  Descending Aus ATC (RADAR)
09:22AM -28.4390 153.6580 39° Northeast 514 592 35,000  Climbing FlightAware
09:23AM -28.3752 153.7174 39° Northeast 514 592 34,900  Descending Aus ATC (RADAR)
09:23AM -28.3720 153.7190 39° Northeast 511 588 35,000 120 Climbing FlightAware
09:24AM -28.3060 153.7790 39° Northeast 511 588 35,000 -120 Level FlightAware
09:24AM -28.2460 153.8344 39° Northeast 509 586 34,900  Descending Aus ATC (RADAR)
09:24AM -28.2410 153.8380 39° Northeast 512 589 35,000 120 Climbing FlightAware
09:25AM -28.1770 153.8970 39° Northeast 514 592 35,000  Level FlightAware
09:25AM -28.1130 153.9540 38° Northeast 514 592 35,000  Level FlightAware
09:26AM -28.0370 154.0240 39° Northeast 516 594 35,000  Level FlightAware
09:27AM -27.9800 154.0750 38° Northeast 517 595 35,000  Level FlightAware
09:27AM -27.9110 154.1370 38° Northeast 517 595 35,000  Level FlightAware
09:28AM -27.8260 154.2140 39° Northeast 518 596 35,000  Level FlightAware
09:28AM -27.7640 154.2700 39° Northeast 518 596 35,000  Level FlightAware
09:29AM -27.6790 154.3410 36° Northeast 503 579 35,000  Level FlightAware
09:30AM -27.6120 154.3860 31° Northeast 507 583 35,000  Level FlightAware
09:30AM -27.5360 154.4370 31° Northeast 509 586 35,000  Level FlightAware
09:31AM -27.4690 154.4820 31° Northeast 510 587 35,000  Level FlightAware
09:32AM -27.3990 154.5290 31° Northeast 510 587 35,000 -180 Level FlightAware
09:32AM -27.3821 154.5403 31° Northeast 509 586 34,900  Descending Aus ATC (RADAR)
09:32AM -27.3340 154.5730 31° Northeast 506 582 35,000 60 Climbing FlightAware
09:33AM -27.2708 154.6165 31° Northeast 517 595 35,000 -240 Level FlightAware ADS-B (NZNE)
09:33AM -27.2605 154.6227 31° Northeast 510 587 34,900  Descending Aus ATC (RADAR)
09:33AM -27.1780 154.6970 38° Northeast 529 609 35,000 60 Climbing FlightAware
09:34AM -27.1302 154.7425 40° Northeast 529 609 35,000  Level FlightAware ADS-B (NZNE)
09:35AM -27.0420 154.8260 40° Northeast 529 609 35,000  Level FlightAware
09:35AM -26.9870 154.8790 41° Northeast 527 606 35,000  Level FlightAware
09:36AM -26.9190 154.9440 41° Northeast 529 609 35,000 -180 Level FlightAware
09:36AM -26.9054 154.9568 41° Northeast 526 605 34,900  Descending Aus ATC (RADAR)
09:36AM -26.8450 155.0140 40° Northeast 530 610 35,000 60 Climbing FlightAware
09:37AM -26.7870 155.0690 40° Northeast 529 609 35,000 -360 Level FlightAware
09:37AM -26.7742 155.0806 40° Northeast 528 608 34,800  Descending Aus ATC (RADAR)
09:38AM -26.7130 155.1390 40° Northeast 528 608 35,000 120 Climbing FlightAware
09:38AM -26.6490 155.1990 40° Northeast 528 608 35,000  Level FlightAware
09:39AM -26.5900 155.2540 40° Northeast 528 608 35,000  Level FlightAware
09:39AM -26.5260 155.3150 40° Northeast 530 610 35,000  Level FlightAware
09:40AM -26.4490 155.3860 40° Northeast 534 615 35,000  Level FlightAware
09:40AM -26.3860 155.4460 40° Northeast 532 612 35,000  Level FlightAware
09:41AM -26.3190 155.5090 40° Northeast 532 612 35,000 -180 Level FlightAware
09:41AM -26.2961 155.5304 40° Northeast 530 610 34,900  Descending Aus ATC (RADAR)
09:42AM -26.2610 155.5630 40° Northeast 532 612 35,000  Climbing FlightAware
09:42AM -26.1730 155.6461 40° Northeast 532 612 34,900  Descending Aus ATC (RADAR)
09:42AM -26.1650 155.6520 40° Northeast 536 617 35,000 120 Climbing FlightAware
09:43AM -26.1000 155.7120 40° Northeast 538 619 35,000  Level FlightAware
09:44AM -26.0340 155.7740 40° Northeast 538 619 35,000  Level FlightAware
09:44AM -25.9440 155.8560 40° Northeast 538 619 35,000 -120 Level FlightAware
09:44AM -25.9242 155.8753 40° Northeast 534 615 34,900  Descending Aus ATC (RADAR)
09:45AM -25.8820 155.9120 39° Northeast 538 619 35,000  Climbing FlightAware
09:46AM -25.7994 155.9894 39° Northeast 534 615 34,900  Descending Aus ATC (RADAR)
09:46AM -25.8000 155.9890 39° Northeast 536 617 35,000 120 Climbing FlightAware
09:46AM -25.7410 156.0440 40° Northeast 536 617 35,000  Level FlightAware
09:46AM -25.7130 156.0810 50° Northeast 553 636 35,000  Level FlightAware
09:47AM -25.6500 156.1760 54° Northeast 563 648 35,000  Level FlightAware
09:48AM -25.6030 156.2470 54° Northeast 563 648 35,000  Level FlightAware
09:48AM -25.5560 156.3190 54° Northeast 563 648 35,000  Level FlightAware
09:49AM -25.5090 156.3900 54° Northeast 563 648 35,000  Level FlightAware
09:50AM -25.4620 156.4620 54° Northeast 563 648 35,000  Level FlightAware
09:50AM -25.4150 156.5330 54° Northeast 563 648 35,000  Level FlightAware
09:51AM -25.3680 156.6040 54° Northeast 563 648 35,000  Level FlightAware
09:51AM -25.3220 156.6760 55° Northeast 563 648 35,000  Level FlightAware
09:52AM -25.2398 156.8789 55° Northeast 537 618 35,000  Level Aus ATC (RADAR)
09:52AM -25.2750 156.7470 55° Northeast 563 648 35,000  Level FlightAware
09:53AM -25.2280 156.8180 54° Northeast 563 648 35,000  Level FlightAware
09:53AM -25.1810 156.8900 54° Northeast 563 648 35,000  Level FlightAware
09:54AM -25.1340 156.9610 54° Northeast 563 648 35,000  Level FlightAware
09:54AM -25.0860 157.0340 54° Northeast 563 648 35,000  Level FlightAware
09:55AM -25.0390 157.1050 54° Northeast 563 648 35,000  Level FlightAware
09:56AM -24.9920 157.1760 54° Northeast 563 648 35,000  Level FlightAware
09:56AM -24.9480 157.2440 54° Northeast 563 648 35,000  Level FlightAware
09:57AM -24.7214 157.7292 57° Northeast 35,000  Level Aus ATC (Calculated)
09:59AM -24.6449 157.8570 57° Northeast  Level FlightAware Approximate
09:59AM -24.5574 158.0029 237° Southwest 35,000  Level Aus ATC (Calculated)
10:00AM -24.5696 157.9825 57° Northeast  Level FlightAware Approximate
10:01AM -24.4555 158.1721 57° Northeast  Level FlightAware Approximate
10:02AM -24.3799 158.2973 56° Northeast  Level FlightAware Approximate
10:02AM -24.2997 158.4299 236° Southwest 35,000  Level Aus ATC (Calculated)
10:03AM -24.3043 158.4223 56° Northeast  Level FlightAware Approximate
10:04AM -24.1973 158.5984 56° Northeast  Level FlightAware Approximate
10:05AM -24.1214 158.7231 56° Northeast  Level FlightAware Approximate
10:06AM -24.0454 158.8476 56° Northeast  Level FlightAware Approximate
10:07AM -23.9693 158.9719 56° Northeast  Level FlightAware Approximate
10:08AM -23.8931 159.0961 56° Northeast  Level FlightAware Approximate
10:09AM -23.8168 159.2202 56° Northeast  Level FlightAware Approximate
10:10AM -23.7404 159.3441 56° Northeast  Level FlightAware Approximate
10:10AM -23.6275 159.5187 211° Southwest 35,000  Level Aus ATC (Calculated)
10:11AM -23.7451 159.4425 211° Southwest  Level FlightAware Approximate
10:12AM -23.6275 159.5187 31° Northeast  Level FlightAware Approximate
10:13AM -23.7451 159.4425 211° Southwest  Level FlightAware Approximate
10:13AM -23.2598 160.1045 236° Southwest 35,000  Level Aus ATC (Calculated)
10:14AM -23.6275 159.5187 31° Northeast  Level FlightAware Approximate
10:15AM -23.3423 159.9753 235° Southwest  Level FlightAware Approximate
10:16AM -23.2659 160.0971 56° Northeast  Level Estimated
10:17AM -23.1891 160.2185 55° Northeast  Level FlightAware Approximate
10:18AM -23.1122 160.3398 55° Northeast  Level FlightAware Approximate
10:18AM -22.8532 160.7445 235° Southwest 35,000  Level Aus ATC (Calculated)
10:19AM -23.0352 160.4610 55° Northeast  Level FlightAware Approximate
10:20AM -22.7463 160.9115 55° Northeast  Level FlightAware Approximate
10:21AM -22.6689 161.0320 55° Northeast  Level FlightAware Approximate
10:22AM -22.5914 161.1524 55° Northeast  Level FlightAware Approximate
10:23AM -22.5139 161.2726 55° Northeast  Level FlightAware Approximate
10:23AM -22.4422 161.3836 55° Northeast 35,000  Level Aus ATC (Calculated)
10:24AM -22.3644 161.5036 55° Northeast  Level FlightAware Approximate
10:25AM -22.2866 161.6234 55° Northeast  Level FlightAware Approximate
10:26AM -22.2087 161.7432 55° Northeast  Level FlightAware Approximate
10:27AM -22.1307 161.8628 55° Northeast  Level FlightAware Approximate
10:28AM -22.0527 161.9822 55° Northeast  Level FlightAware Approximate
10:29AM -21.9745 162.1016 55° Northeast  Level FlightAware Approximate
10:30AM -21.8962 162.2208 55° Northeast  Level FlightAware Approximate
10:31AM -21.8179 162.3398 55° Northeast  Level FlightAware Approximate
10:32AM -21.7395 162.4588 55° Northeast  Level FlightAware Approximate
10:33AM -21.6610 162.5776 55° Northeast  Level FlightAware Approximate
10:33AM -21.5474 162.7490 54° Northeast 35,000  Level Aus ATC (Calculated)
10:34AM -21.4687 162.8675 54° Northeast  Level FlightAware Approximate
10:35AM -21.3899 162.9859 54° Northeast  Level FlightAware Approximate
10:36AM -21.3110 163.1041 54° Northeast  Level FlightAware Approximate
10:37AM -21.3899 162.9859 234° Southwest  Level FlightAware Approximate
10:38AM -21.3110 163.1041 54° Northeast  Level FlightAware Approximate
10:39AM -21.3899 162.9859 234° Southwest  Level FlightAware Approximate
10:40AM -21.3110 163.1041 54° Northeast  Level FlightAware Approximate
10:41AM -21.3899 162.9859 234° Southwest  Level FlightAware Approximate
10:42AM -21.3110 163.1041 54° Northeast  Level FlightAware Approximate
10:43AM -21.3899 162.9859 234° Southwest  Level FlightAware Approximate
10:44AM -21.3631 163.0257 54° Northeast  Level FlightAware Approximate
10:45AM -21.2833 163.1432 54° Northeast  Level FlightAware Approximate
10:46AM -21.2034 163.2606 54° Northeast  Level FlightAware Approximate
10:47AM -21.1235 163.3778 54° Northeast  Level FlightAware Approximate
10:48AM -21.0435 163.4950 54° Northeast  Level FlightAware Approximate
10:49AM -20.9634 163.6120 54° Northeast  Level FlightAware Approximate
10:50AM -20.8832 163.7289 54° Northeast  Level FlightAware Approximate
10:51AM -20.8029 163.8456 54° Northeast  Level FlightAware Approximate
10:52AM -20.7226 163.9622 54° Northeast  Level FlightAware Approximate
10:53AM -20.6422 164.0788 54° Northeast  Level FlightAware Approximate
10:54AM -20.5617 164.1951 54° Northeast  Level FlightAware Approximate
10:55AM -20.4811 164.3114 54° Northeast  Level FlightAware Approximate
10:56AM -20.4004 164.4276 53° Northeast  Level FlightAware Approximate
10:57AM -20.3197 164.5436 53° Northeast  Level FlightAware Approximate
10:58AM -20.2389 164.6595 53° Northeast  Level FlightAware Approximate
10:59AM -20.1580 164.7753 53° Northeast  Level FlightAware Approximate
11:00AM -20.0771 164.8909 53° Northeast  Level FlightAware Approximate
11:01AM -19.9960 165.0065 53° Northeast  Level FlightAware Approximate
11:02AM -19.9149 165.1219 53° Northeast  Level FlightAware Approximate
11:03AM -19.8337 165.2372 53° Northeast  Level FlightAware Approximate
11:04AM -19.7525 165.3524 53° Northeast  Level FlightAware Approximate
11:05AM -19.6712 165.4674 53° Northeast  Level FlightAware Approximate
11:06AM -19.5898 165.5824 53° Northeast  Level FlightAware Approximate
11:07AM -19.5083 165.6972 53° Northeast  Level FlightAware Approximate
11:08AM -19.4267 165.8119 53° Northeast  Level FlightAware Approximate
11:09AM -19.3451 165.9265 53° Northeast  Level FlightAware Approximate
11:10AM -19.2634 166.0410 53° Northeast  Level FlightAware Approximate
11:11AM -19.1817 166.1554 53° Northeast  Level FlightAware Approximate
11:12AM -19.0998 166.2696 53° Northeast  Level FlightAware Approximate
11:13AM -19.0179 166.3838 53° Northeast  Level FlightAware Approximate
11:14AM -18.9359 166.4978 53° Northeast  Level FlightAware Approximate
11:15AM -18.8539 166.6117 53° Northeast  Level FlightAware Approximate
11:16AM -18.7718 166.7256 53° Northeast  Level FlightAware Approximate
11:17AM -18.6896 166.8392 53° Northeast  Level FlightAware Approximate
11:18AM -18.6073 166.9528 53° Northeast  Level FlightAware Approximate
11:19AM -18.5250 167.0663 53° Northeast  Level FlightAware Approximate
11:20AM -18.4426 167.1797 53° Northeast  Level FlightAware Approximate
11:21AM -18.3602 167.2930 53° Northeast  Level FlightAware Approximate
11:22AM -18.2777 167.4061 52° Northeast  Level FlightAware Approximate
11:23AM -18.1951 167.5191 52° Northeast  Level FlightAware Approximate
11:24AM -18.1124 167.6321 52° Northeast  Level FlightAware Approximate
11:25AM -18.0297 167.7449 52° Northeast  Level FlightAware Approximate
11:26AM -17.9469 167.8576 52° Northeast  Level FlightAware Approximate
11:27AM -17.8641 167.9702 52° Northeast  Level FlightAware Approximate
11:28AM -17.7812 168.0828 52° Northeast  Level FlightAware Approximate
11:29AM -17.6982 168.1952 52° Northeast  Level FlightAware Approximate
11:30AM -17.6621 168.2439 54° Northeast  Level FlightAware Approximate
11:31AM -17.6993 168.3198 54° Northeast  Level Estimated
11:32AM -17.6993 168.3198 54° Northeast  Level Estimated
11:33AM -17.6993 168.3198 54° Northeast  Level Estimated
11:34AM -17.6993 168.3198 54° Northeast  Level Estimated
11:35AM -17.6993 168.3198 54° Northeast  Level Estimated
11:36AM -17.6993 168.3198 54° Northeast  Level Estimated
11:37AM -17.6993 168.3198 54° Northeast  Level Estimated
11:38AM -17.6993 168.3198 54° Northeast  Level Estimated
11:39AM -17.6993 168.3198 54° Northeast  Level Estimated
11:40AM -17.6993 168.3198 54° Northeast  Level Estimated
11:41AM -17.6993 168.3198 54° Northeast  Level Estimated